Time;durP1;ratioP1;P1;durP2;ratioP2;P2;SDS_P1;SDS_P2;PMS_P1;PMS_P2;Temp;Humidity;BMP_temperature;BMP_pressure;BME280_temperature;BME280_humidity;BME280_pressure;Samples;Min_cycle;Max_cycle;Signal;HPM_P1;HPM_P2
2020/08/21 00:02:18;;;;;;;0.5;0.3;;;;;;;22.14;73.46191;936.6394;;;;
2020/08/21 00:04:46;;;;;;;0.1;0.1;;;;;;;22.16;73.23242;936.6408;;;;
2020/08/21 00:07:11;;;;;;;0.6;0.3;;;;;;;22.2;73.35547;936.5942;;;;
2020/08/21 00:09:36;;;;;;;0.6;0.4;;;;;;;22.14;73.52051;936.6523;;;;
2020/08/21 00:12:02;;;;;;;0.4;0.3;;;;;;;22.04;72.51953;936.6144;;;;
2020/08/21 00:14:26;;;;;;;0.5;0.4;;;;;;;22;73.50977;936.6194;;;;
2020/08/21 00:16:52;;;;;;;0.2;0.2;;;;;;;21.96;74.08887;936.6058;;;;
2020/08/21 00:19:17;;;;;;;0.6;0.3;;;;;;;21.91;73.84473;936.6595;;;;
2020/08/21 00:21:42;;;;;;;0.2;0.2;;;;;;;21.88;73.6543;936.5664;;;;
2020/08/21 00:24:07;;;;;;;0.2;0.2;;;;;;;21.93;73.4043;936.5986;;;;
2020/08/21 00:26:32;;;;;;;0.2;0.2;;;;;;;21.75;73.95898;936.6481;;;;
2020/08/21 00:28:57;;;;;;;0.2;0.2;;;;;;;21.77;73.95117;936.6442;;;;
2020/08/21 00:31:22;;;;;;;0;0;;;;;;;21.82;73.80859;936.6307;;;;
2020/08/21 00:33:47;;;;;;;0.5;0.3;;;;;;;21.85;73.80078;936.7006;;;;
2020/08/21 00:36:13;;;;;;;0.5;0.4;;;;;;;21.88;73.52441;936.65;;;;
2020/08/21 00:38:38;;;;;;;0.9;0.2;;;;;;;21.53;75.03809;936.6594;;;;
2020/08/21 00:41:03;;;;;;;4.7;0.3;;;;;;;21.41;75.76367;936.5872;;;;
2020/08/21 00:43:30;;;;;;;0.2;0.2;;;;;;;21.48;75.57715;936.6445;;;;
2020/08/21 00:45:55;;;;;;;0.3;0.3;;;;;;;21.48;75.5791;936.6638;;;;
2020/08/21 00:48:20;;;;;;;0.2;0.2;;;;;;;21.55;75.61328;936.7344;;;;
2020/08/21 00:50:46;;;;;;;0.2;0.2;;;;;;;21.59;74.96387;936.7126;;;;
2020/08/21 00:53:11;;;;;;;0.2;0.2;;;;;;;21.55;75.19336;936.6879;;;;
2020/08/21 00:55:36;;;;;;;0.8;0.2;;;;;;;21.49;75.56738;936.6909;;;;
2020/08/21 00:58:05;;;;;;;0.1;0.1;;;;;;;21.49;75.6377;936.7057;;;;
2020/08/21 01:00:44;;;;;;;1.8;0.4;;;;;;;21.52;75.32617;936.6997;;;;
2020/08/21 01:03:09;;;;;;;0.1;0.1;;;;;;;21.44;75.50098;936.7097;;;;
2020/08/21 01:05:35;;;;;;;0.1;0.1;;;;;;;21.43;75.47559;936.7173;;;;
2020/08/21 01:08:00;;;;;;;0.2;0.2;;;;;;;21.39;75.50488;936.7119;;;;
2020/08/21 01:10:28;;;;;;;0.3;0.3;;;;;;;21.39;75.16406;936.7145;;;;
2020/08/21 01:12:53;;;;;;;0.7;0.2;;;;;;;21.35;75.46191;936.7539;;;;
2020/08/21 01:15:36;;;;;;;0.2;0.2;;;;;;;21.31;75.73535;936.7173;;;;
2020/08/21 01:18:04;;;;;;;3.1;0.6;;;;;;;21.2;75.97559;936.76;;;;
2020/08/21 01:20:29;;;;;;;0.3;0.3;;;;;;;21.13;76.16016;936.8019;;;;
2020/08/21 01:22:55;;;;;;;0.4;0.2;;;;;;;21.07;76.31543;936.7563;;;;
2020/08/21 01:25:20;;;;;;;0.3;0.2;;;;;;;21.11;75.97168;936.7499;;;;
2020/08/21 01:27:45;;;;;;;0.3;0.2;;;;;;;21.12;76.09082;936.723;;;;
2020/08/21 01:30:10;;;;;;;0.9;0.3;;;;;;;21.04;76.22852;936.6965;;;;
2020/08/21 01:32:35;;;;;;;0.4;0.3;;;;;;;21.07;76.06738;936.6957;;;;
2020/08/21 01:35:00;;;;;;;0.1;0.1;;;;;;;21.1;75.92383;936.6411;;;;
2020/08/21 01:37:27;;;;;;;0.1;0.1;;;;;;;20.94;76.67773;936.63;;;;
2020/08/21 01:39:52;;;;;;;0.2;0.2;;;;;;;20.89;76.68164;936.5968;;;;
2020/08/21 01:42:18;;;;;;;0.1;0.1;;;;;;;20.77;76.85938;936.5769;;;;
2020/08/21 01:44:43;;;;;;;0.3;0.3;;;;;;;20.71;77.25586;936.5192;;;;
2020/08/21 01:47:08;;;;;;;2.1;0.6;;;;;;;20.68;77.60352;936.4916;;;;
2020/08/21 01:49:34;;;;;;;0.3;0.3;;;;;;;20.62;77.79102;936.4943;;;;
2020/08/21 01:51:59;;;;;;;0.3;0.3;;;;;;;20.7;77.1377;936.4264;;;;
2020/08/21 01:54:24;;;;;;;3.3;0.5;;;;;;;20.76;76.98633;936.4996;;;;
2020/08/21 01:56:49;;;;;;;1.3;0.6;;;;;;;20.61;77.41602;936.5552;;;;
2020/08/21 01:59:14;;;;;;;0.1;0.1;;;;;;;20.46;78.00977;936.5452;;;;
2020/08/21 02:01:39;;;;;;;0.2;0.2;;;;;;;20.56;77.75879;936.5623;;;;
2020/08/21 02:04:05;;;;;;;0.7;0.5;;;;;;;20.72;77.0957;936.5746;;;;
2020/08/21 02:06:30;;;;;;;0.8;0.5;;;;;;;20.79;76.90918;936.5658;;;;
2020/08/21 02:08:55;;;;;;;1;0.7;;;;;;;20.81;76.7373;936.6234;;;;
2020/08/21 02:11:20;;;;;;;0.3;0.2;;;;;;;20.79;76.5127;936.6128;;;;
2020/08/21 02:13:45;;;;;;;0.3;0.3;;;;;;;20.54;77.48633;936.5581;;;;
2020/08/21 02:16:10;;;;;;;2.5;0.4;;;;;;;20.38;78.01855;936.4727;;;;
2020/08/21 02:18:35;;;;;;;0.3;0.3;;;;;;;20.29;78.4209;936.4207;;;;
2020/08/21 02:21:00;;;;;;;1.2;0.3;;;;;;;20.31;78.55273;936.4719;;;;
2020/08/21 02:23:26;;;;;;;1.1;0.2;;;;;;;20.32;78.44922;936.4473;;;;
2020/08/21 02:25:51;;;;;;;0.3;0.3;;;;;;;20.24;78.82227;936.4441;;;;
2020/08/21 02:28:16;;;;;;;0.4;0.2;;;;;;;20.25;78.83496;936.3839;;;;
2020/08/21 02:30:41;;;;;;;0.1;0.1;;;;;;;20.29;78.79492;936.3616;;;;
2020/08/21 02:33:06;;;;;;;3.9;0.4;;;;;;;20.36;78.21387;936.3803;;;;
2020/08/21 02:35:31;;;;;;;0.4;0.4;;;;;;;20.4;77.92871;936.3605;;;;
2020/08/21 02:37:57;;;;;;;0.4;0.3;;;;;;;20.21;78.81738;936.3935;;;;
2020/08/21 02:40:22;;;;;;;0.5;0.5;;;;;;;20.08;79.36621;936.3588;;;;
2020/08/21 02:42:47;;;;;;;0.6;0.4;;;;;;;20.05;79.47656;936.3176;;;;
2020/08/21 02:45:12;;;;;;;0.9;0.6;;;;;;;20.11;79.17285;936.2772;;;;
2020/08/21 02:47:38;;;;;;;0.3;0.3;;;;;;;20.11;79.04297;936.2586;;;;
2020/08/21 02:50:03;;;;;;;0.2;0.1;;;;;;;20.1;78.87793;936.1724;;;;
2020/08/21 02:52:29;;;;;;;0.5;0.3;;;;;;;20.03;79.16992;936.2175;;;;
2020/08/21 02:54:55;;;;;;;0.2;0.2;;;;;;;19.98;79.41699;936.2485;;;;
2020/08/21 02:57:20;;;;;;;0.3;0.3;;;;;;;19.99;79.15039;936.2715;;;;
2020/08/21 02:59:45;;;;;;;0.2;0.2;;;;;;;19.99;79.19727;936.2845;;;;
2020/08/21 03:02:10;;;;;;;0.2;0.2;;;;;;;19.99;79.13867;936.2658;;;;
2020/08/21 03:04:35;;;;;;;0.6;0.3;;;;;;;19.94;79.375;936.2867;;;;
2020/08/21 03:07:02;;;;;;;0.1;0.1;;;;;;;19.85;79.83691;936.2838;;;;
2020/08/21 03:09:26;;;;;;;0.8;0.5;;;;;;;19.79;80.04785;936.2836;;;;
2020/08/21 03:11:52;;;;;;;0.1;0.1;;;;;;;19.84;79.6377;936.3406;;;;
2020/08/21 03:14:18;;;;;;;1.8;0.3;;;;;;;19.83;79.95117;936.324;;;;
2020/08/21 03:16:43;;;;;;;0.7;0.5;;;;;;;19.84;80.23242;936.2808;;;;
2020/08/21 03:19:09;;;;;;;1.3;0.7;;;;;;;19.9;79.54395;936.2693;;;;
2020/08/21 03:21:37;;;;;;;0.3;0.3;;;;;;;19.81;79.77051;936.2466;;;;
2020/08/21 03:24:02;;;;;;;0.3;0.3;;;;;;;19.79;79.83789;936.2908;;;;
2020/08/21 03:26:29;;;;;;;0.3;0.3;;;;;;;19.87;79.73535;936.3309;;;;
2020/08/21 03:28:54;;;;;;;0.5;0.3;;;;;;;19.81;79.49121;936.3128;;;;
2020/08/21 03:31:19;;;;;;;0.4;0.3;;;;;;;19.76;79.83105;936.2321;;;;
2020/08/21 03:33:44;;;;;;;1.5;0.8;;;;;;;19.78;79.60254;936.2927;;;;
2020/08/21 03:36:09;;;;;;;0.6;0.4;;;;;;;19.76;79.61133;936.3223;;;;
2020/08/21 03:38:34;;;;;;;1.4;0.5;;;;;;;19.57;80.52148;936.3519;;;;
2020/08/21 03:40:59;;;;;;;0.6;0.5;;;;;;;19.53;80.69922;936.3342;;;;
2020/08/21 03:43:24;;;;;;;1;0.7;;;;;;;19.6;80.50293;936.3445;;;;
2020/08/21 03:45:51;;;;;;;1.2;0.7;;;;;;;19.64;80.28809;936.343;;;;
2020/08/21 03:48:16;;;;;;;1.6;0.6;;;;;;;19.68;80.00488;936.4283;;;;
2020/08/21 03:50:41;;;;;;;1.8;0.5;;;;;;;19.73;79.72168;936.4236;;;;
2020/08/21 03:53:06;;;;;;;0.7;0.4;;;;;;;19.74;79.38477;936.3748;;;;
2020/08/21 03:55:31;;;;;;;0.8;0.5;;;;;;;19.71;79.44824;936.4032;;;;
2020/08/21 03:57:56;;;;;;;1.1;0.4;;;;;;;19.64;79.7998;936.4116;;;;
2020/08/21 04:02:38;;;;;;;0.5;0.4;;;;;;;19.57;80.04297;936.4319;;;;
2020/08/21 04:05:02;;;;;;;0.6;0.4;;;;;;;19.52;79.97656;936.4626;;;;
2020/08/21 04:07:28;;;;;;;0.7;0.4;;;;;;;19.44;80.21875;936.4924;;;;
2020/08/21 04:09:53;;;;;;;0.8;0.5;;;;;;;19.35;80.73633;936.4316;;;;
2020/08/21 04:12:18;;;;;;;0.5;0.4;;;;;;;19.3;81.07715;936.4345;;;;
2020/08/21 04:14:45;;;;;;;1;0.8;;;;;;;19.21;81.53809;936.4788;;;;
2020/08/21 04:17:14;;;;;;;0.9;0.7;;;;;;;19.21;81.65527;936.561;;;;
2020/08/21 04:19:39;;;;;;;4.4;1.5;;;;;;;19.12;81.85938;936.5464;;;;
2020/08/21 04:22:04;;;;;;;9.9;1.6;;;;;;;19.11;81.92773;936.5944;;;;
2020/08/21 04:24:30;;;;;;;1;0.7;;;;;;;18.91;83.00781;936.6219;;;;
2020/08/21 04:26:56;;;;;;;1;0.6;;;;;;;18.89;83.27051;936.5844;;;;
2020/08/21 04:29:21;;;;;;;1.1;0.6;;;;;;;18.96;82.96973;936.5908;;;;
2020/08/21 04:31:49;;;;;;;1.1;0.6;;;;;;;19;82.69727;936.5905;;;;
2020/08/21 04:34:14;;;;;;;0.7;0.5;;;;;;;19;82.50098;936.5993;;;;
2020/08/21 04:36:41;;;;;;;1.2;0.6;;;;;;;18.82;83.36133;936.5818;;;;
2020/08/21 04:39:06;;;;;;;1.2;0.6;;;;;;;18.63;84.4209;936.6252;;;;
2020/08/21 04:41:31;;;;;;;3.1;1;;;;;;;18.68;84.2334;936.6345;;;;
2020/08/21 04:43:56;;;;;;;0.9;0.7;;;;;;;18.8;83.64941;936.7228;;;;
2020/08/21 04:46:21;;;;;;;0.9;0.6;;;;;;;18.85;83.2168;936.688;;;;
2020/08/21 04:48:48;;;;;;;1;0.6;;;;;;;18.94;82.85059;936.6995;;;;
2020/08/21 04:51:16;;;;;;;1.2;0.7;;;;;;;19;82.41992;936.7227;;;;
2020/08/21 04:53:41;;;;;;;0.9;0.4;;;;;;;18.98;82.39258;936.8136;;;;
2020/08/21 04:56:06;;;;;;;1.1;0.7;;;;;;;19.01;82.21191;936.7896;;;;
2020/08/21 04:58:32;;;;;;;1.6;0.7;;;;;;;19.05;82.0791;936.7806;;;;
2020/08/21 05:00:57;;;;;;;2.1;1;;;;;;;19.07;81.94238;936.7488;;;;
2020/08/21 05:03:22;;;;;;;1.7;1;;;;;;;19.12;81.91797;936.8242;;;;
2020/08/21 05:05:48;;;;;;;0.8;0.6;;;;;;;19.16;81.70508;936.7819;;;;
2020/08/21 05:08:13;;;;;;;1.3;0.8;;;;;;;19.36;81.16895;936.8086;;;;
2020/08/21 05:10:38;;;;;;;2.4;0.7;;;;;;;19.42;80.94727;936.7805;;;;
2020/08/21 05:13:03;;;;;;;1.9;0.7;;;;;;;19.37;80.63672;936.7564;;;;
2020/08/21 05:15:29;;;;;;;1.2;0.8;;;;;;;19.31;80.86914;936.7566;;;;
2020/08/21 05:17:55;;;;;;;1.6;0.9;;;;;;;19.35;80.81738;936.7305;;;;
2020/08/21 05:20:20;;;;;;;13.6;1.7;;;;;;;19.32;80.94141;936.7352;;;;
2020/08/21 05:22:46;;;;;;;0.5;0.4;;;;;;;19.22;81.3418;936.8378;;;;
2020/08/21 05:25:14;;;;;;;0.8;0.6;;;;;;;19.23;81.27344;936.8781;;;;
2020/08/21 05:27:39;;;;;;;2.9;0.7;;;;;;;19.25;81.12695;936.783;;;;
2020/08/21 05:30:04;;;;;;;1.6;0.8;;;;;;;19.34;80.98047;936.8074;;;;
2020/08/21 05:32:29;;;;;;;0.6;0.6;;;;;;;19.44;80.77637;936.8027;;;;
2020/08/21 05:34:57;;;;;;;3;1.1;;;;;;;19.48;80.60938;936.8159;;;;
2020/08/21 05:37:22;;;;;;;1;0.7;;;;;;;19.73;80.25781;936.8599;;;;
2020/08/21 05:39:48;;;;;;;0.8;0.6;;;;;;;20.1;78.85645;936.8642;;;;
2020/08/21 05:42:12;;;;;;;0.9;0.6;;;;;;;20.87;76.56152;936.8412;;;;
2020/08/21 05:44:39;;;;;;;1;0.5;;;;;;;21.62;72.68555;936.858;;;;
2020/08/21 05:47:04;;;;;;;0.3;0.3;;;;;;;22.51;69.60449;936.8652;;;;
2020/08/21 05:49:29;;;;;;;0.2;0.2;;;;;;;23.42;66.2666;936.8329;;;;
2020/08/21 05:51:56;;;;;;;2.8;0.7;;;;;;;24.09;63.87012;936.8375;;;;
2020/08/21 05:54:22;;;;;;;0.9;0.6;;;;;;;25.05;60.69043;936.9013;;;;
2020/08/21 05:56:47;;;;;;;0.3;0.3;;;;;;;26.18;57.5332;936.8703;;;;
2020/08/21 05:59:12;;;;;;;0.9;0.8;;;;;;;27.08;54.4707;936.9048;;;;
2020/08/21 06:01:37;;;;;;;0.6;0.2;;;;;;;27.78;52.20508;936.8481;;;;
2020/08/21 06:04:02;;;;;;;0.3;0.2;;;;;;;28.21;50.78027;936.8466;;;;
2020/08/21 06:06:27;;;;;;;2.6;0.7;;;;;;;28.35;50.55957;936.8816;;;;
2020/08/21 06:08:52;;;;;;;0.2;0.2;;;;;;;28.35;50.58203;936.8491;;;;
2020/08/21 06:11:21;;;;;;;2.1;0.8;;;;;;;28.46;50.48926;936.8511;;;;
2020/08/21 06:13:47;;;;;;;0.5;0.3;;;;;;;29.27;48.69727;936.8887;;;;
2020/08/21 06:16:12;;;;;;;0.5;0.4;;;;;;;29.74;47.16211;936.889;;;;
2020/08/21 06:18:37;;;;;;;0.4;0.4;;;;;;;29.45;45.80859;936.8739;;;;
2020/08/21 06:21:02;;;;;;;0.4;0.3;;;;;;;29.6;46.33594;936.8848;;;;
2020/08/21 06:23:27;;;;;;;0.7;0.4;;;;;;;30.24;45.07715;936.9412;;;;
2020/08/21 06:25:53;;;;;;;0.3;0.3;;;;;;;29.98;45.26563;936.8753;;;;
2020/08/21 06:28:18;;;;;;;1.8;0.4;;;;;;;31.02;43.70801;936.8967;;;;
2020/08/21 06:30:46;;;;;;;0.7;0.4;;;;;;;32.05;41.13477;936.902;;;;
2020/08/21 06:33:11;;;;;;;0.2;0.2;;;;;;;32.07;41.31641;936.9174;;;;
2020/08/21 06:35:37;;;;;;;0.2;0.2;;;;;;;32.68;40.11133;936.9168;;;;
2020/08/21 06:38:02;;;;;;;0.9;0.4;;;;;;;33.06;39.41211;936.8661;;;;
2020/08/21 06:40:27;;;;;;;5.5;1.2;;;;;;;33.65;37.93652;936.8251;;;;
2020/08/21 06:42:52;;;;;;;0.6;0.3;;;;;;;33.89;37.4502;936.8652;;;;
2020/08/21 06:45:21;;;;;;;0.6;0.3;;;;;;;32.44;39.22656;936.8709;;;;
2020/08/21 06:47:46;;;;;;;0.6;0.5;;;;;;;31.53;40.66797;936.8792;;;;
2020/08/21 06:50:11;;;;;;;0.3;0.2;;;;;;;31.7;39.59375;936.7697;;;;
2020/08/21 06:52:36;;;;;;;0.4;0.3;;;;;;;32.36;41.13867;936.7808;;;;
2020/08/21 06:55:01;;;;;;;0.2;0.2;;;;;;;33.85;38.04883;936.8058;;;;
2020/08/21 06:57:27;;;;;;;0.3;0.3;;;;;;;34.6;36.4248;936.8418;;;;
2020/08/21 06:59:52;;;;;;;0.2;0.2;;;;;;;35.04;35.56641;936.8448;;;;
2020/08/21 07:02:17;;;;;;;0.3;0.3;;;;;;;34.48;35.89648;936.8871;;;;
2020/08/21 07:04:43;;;;;;;1.8;0.3;;;;;;;34;36.50879;936.8244;;;;
2020/08/21 07:07:08;;;;;;;0.4;0.2;;;;;;;33.95;37.17871;936.7576;;;;
2020/08/21 07:09:33;;;;;;;0.4;0.3;;;;;;;33.16;38.02734;936.782;;;;
2020/08/21 07:11:58;;;;;;;0.4;0.4;;;;;;;33.46;38.24414;936.8259;;;;
2020/08/21 07:14:23;;;;;;;0.1;0.1;;;;;;;32.55;41.37109;936.7739;;;;
2020/08/21 07:16:48;;;;;;;0.5;0.5;;;;;;;33.42;36.78613;936.7911;;;;
2020/08/21 07:19:13;;;;;;;0.9;0.6;;;;;;;33.2;36.18066;936.7506;;;;
2020/08/21 07:21:38;;;;;;;0.1;0.1;;;;;;;33.23;41.6748;936.7353;;;;
2020/08/21 07:24:03;;;;;;;0.9;0.2;;;;;;;34.09;37.09375;936.7952;;;;
2020/08/21 07:26:28;;;;;;;0.3;0.3;;;;;;;34.56;34.91406;936.7802;;;;
2020/08/21 07:28:54;;;;;;;0.3;0.2;;;;;;;34.57;35.30078;936.7726;;;;
2020/08/21 07:31:22;;;;;;;3.4;0.8;;;;;;;34.84;32.64355;936.7869;;;;
2020/08/21 07:33:47;;;;;;;0.3;0.2;;;;;;;34.47;33.91895;936.7783;;;;
2020/08/21 07:36:14;;;;;;;1.6;0.4;;;;;;;35.23;38.01953;936.7606;;;;
2020/08/21 07:38:39;;;;;;;9.1;0.9;;;;;;;36.43;32.92773;936.7986;;;;
2020/08/21 07:41:04;;;;;;;1.4;0.6;;;;;;;37.01;30.80078;936.8141;;;;
2020/08/21 07:43:29;;;;;;;0.8;0.6;;;;;;;36.78;30.0332;936.7983;;;;
2020/08/21 07:45:58;;;;;;;3.4;0.5;;;;;;;36.98;30.05957;936.8197;;;;
2020/08/21 07:48:23;;;;;;;1;0.7;;;;;;;37.42;29.89453;936.7834;;;;
2020/08/21 07:50:48;;;;;;;1.1;0.4;;;;;;;37.53;29.70703;936.7626;;;;
2020/08/21 07:53:14;;;;;;;1;0.5;;;;;;;38.16;29.94238;936.8137;;;;
2020/08/21 07:55:39;;;;;;;0.5;0.4;;;;;;;39.04;27.69922;936.8192;;;;
2020/08/21 07:58:04;;;;;;;0.5;0.4;;;;;;;38.36;29.14063;936.7419;;;;
2020/08/21 08:00:38;;;;;;;1.3;0.8;;;;;;;38.32;30.96094;936.782;;;;
2020/08/21 08:03:03;;;;;;;0.6;0.6;;;;;;;39.54;29.88574;936.7817;;;;
2020/08/21 08:05:29;;;;;;;1.2;0.5;;;;;;;40.28;28.4209;936.7117;;;;
2020/08/21 08:07:54;;;;;;;0.7;0.5;;;;;;;41;24.88379;936.6858;;;;
2020/08/21 08:10:19;;;;;;;0.5;0.4;;;;;;;40.3;26.89551;936.6811;;;;
2020/08/21 08:12:46;;;;;;;1;0.7;;;;;;;41.34;26.56543;936.6806;;;;
2020/08/21 08:15:11;;;;;;;0.5;0.5;;;;;;;41.45;23.87988;936.6454;;;;
2020/08/21 08:17:56;;;;;;;1;0.6;;;;;;;40.22;27.69629;936.6203;;;;
2020/08/21 08:20:12;;;;;;;0.7;0.4;;;;;;;41.45;26.90234;936.6451;;;;
2020/08/21 08:22:37;;;;;;;0.5;0.5;;;;;;;41.83;26.53125;936.6266;;;;
2020/08/21 08:25:02;;;;;;;0.5;0.3;;;;;;;42.62;25.54785;936.6658;;;;
2020/08/21 08:27:27;;;;;;;1.1;0.5;;;;;;;42.96;24.36328;936.6781;;;;
2020/08/21 08:29:52;;;;;;;0.8;0.4;;;;;;;43.84;23.04395;936.6696;;;;
2020/08/21 08:32:17;;;;;;;0.8;0.6;;;;;;;43.39;21.68262;936.6758;;;;
2020/08/21 08:34:42;;;;;;;0.5;0.4;;;;;;;43.19;22.00488;936.661;;;;
2020/08/21 08:37:07;;;;;;;1.5;0.7;;;;;;;42.21;23.04883;936.6053;;;;
2020/08/21 08:39:32;;;;;;;0.5;0.3;;;;;;;41.75;22.29199;936.6042;;;;
2020/08/21 08:41:57;;;;;;;0.6;0.4;;;;;;;40.78;25.37305;936.5784;;;;
2020/08/21 08:44:23;;;;;;;0.6;0.4;;;;;;;42.38;23.41309;936.5834;;;;
2020/08/21 08:46:48;;;;;;;0.4;0.4;;;;;;;42.27;22.5498;936.5834;;;;
2020/08/21 08:49:13;;;;;;;0.8;0.7;;;;;;;43.03;23.58105;936.6537;;;;
2020/08/21 08:51:38;;;;;;;0.6;0.4;;;;;;;41.29;22.51465;936.5695;;;;
2020/08/21 08:54:03;;;;;;;0.4;0.4;;;;;;;41.74;23.22168;936.5703;;;;
2020/08/21 08:56:28;;;;;;;0.3;0.3;;;;;;;42.53;22.41504;936.501;;;;
2020/08/21 08:58:53;;;;;;;0.5;0.4;;;;;;;43.34;21.52051;936.5703;;;;
2020/08/21 09:01:18;;;;;;;0.2;0.2;;;;;;;43.65;22.37109;936.5818;;;;
2020/08/21 09:03:43;;;;;;;0.5;0.4;;;;;;;43.89;21.62012;936.5488;;;;
2020/08/21 09:06:09;;;;;;;0.5;0.5;;;;;;;43.81;21.69043;936.5145;;;;
2020/08/21 09:08:34;;;;;;;0.7;0.5;;;;;;;43.9;21.26367;936.5481;;;;
2020/08/21 09:10:59;;;;;;;0.8;0.6;;;;;;;42.81;21.49609;936.5369;;;;
2020/08/21 09:13:24;;;;;;;0.5;0.4;;;;;;;43.21;22.19043;936.5215;;;;
2020/08/21 09:15:49;;;;;;;0.5;0.3;;;;;;;43.34;23.36328;936.5165;;;;
2020/08/21 09:18:14;;;;;;;0.6;0.4;;;;;;;42.9;22.0166;936.452;;;;
2020/08/21 09:20:40;;;;;;;0.3;0.3;;;;;;;42.42;23.02344;936.4434;;;;
2020/08/21 09:23:05;;;;;;;1.7;0.6;;;;;;;40.64;23.22754;936.356;;;;
2020/08/21 09:25:30;;;;;;;0.3;0.3;;;;;;;38.79;24.36328;936.3727;;;;
2020/08/21 09:27:55;;;;;;;0.4;0.3;;;;;;;36.79;27.13965;936.3741;;;;
2020/08/21 09:30:23;;;;;;;0.4;0.3;;;;;;;36.88;30.19824;936.3337;;;;
2020/08/21 09:32:48;;;;;;;0.4;0.4;;;;;;;37.34;28.09473;936.3395;;;;
2020/08/21 09:35:13;;;;;;;0.4;0.4;;;;;;;37.67;28.47852;936.3747;;;;
2020/08/21 09:37:38;;;;;;;0.5;0.5;;;;;;;37.7;28.26172;936.3861;;;;
2020/08/21 09:40:04;;;;;;;0.5;0.4;;;;;;;38.09;26.0752;936.3546;;;;
2020/08/21 09:42:29;;;;;;;0.6;0.4;;;;;;;38.28;26.31641;936.3741;;;;
2020/08/21 09:44:54;;;;;;;0.6;0.4;;;;;;;37.46;26.1123;936.3122;;;;
2020/08/21 09:47:19;;;;;;;0.9;0.4;;;;;;;37.26;28.39258;936.2789;;;;
2020/08/21 09:49:44;;;;;;;0.4;0.4;;;;;;;37.61;29.28809;936.2542;;;;
2020/08/21 09:52:09;;;;;;;0.7;0.4;;;;;;;37.67;27.24023;936.2134;;;;
2020/08/21 09:54:34;;;;;;;0.5;0.3;;;;;;;37.55;30.48438;936.1196;;;;
2020/08/21 09:56:59;;;;;;;0.3;0.3;;;;;;;37.78;28.70313;936.1216;;;;
2020/08/21 09:59:24;;;;;;;0.3;0.3;;;;;;;38.08;31.87988;936.1731;;;;
2020/08/21 10:01:53;;;;;;;0.4;0.4;;;;;;;38.23;27.90527;936.1955;;;;
2020/08/21 10:04:19;;;;;;;2.1;0.5;;;;;;;37.9;31.29688;936.1577;;;;
2020/08/21 10:06:45;;;;;;;0.5;0.5;;;;;;;37.35;32.75;936.1014;;;;
2020/08/21 10:09:10;;;;;;;0.6;0.4;;;;;;;37.51;32.95605;936.0905;;;;
2020/08/21 10:11:35;;;;;;;0.8;0.6;;;;;;;36.55;34.94531;936.1158;;;;
2020/08/21 10:14:01;;;;;;;0.5;0.4;;;;;;;37.05;32.62012;936.0607;;;;
2020/08/21 10:16:27;;;;;;;0.6;0.4;;;;;;;37.62;30.20996;936.1108;;;;
2020/08/21 10:18:51;;;;;;;0.6;0.5;;;;;;;38;30.25977;936.1063;;;;
2020/08/21 10:21:16;;;;;;;0.5;0.4;;;;;;;38.37;30.51465;936.0751;;;;
2020/08/21 10:23:42;;;;;;;1;0.3;;;;;;;38.3;31.60352;936.1124;;;;
2020/08/21 10:26:07;;;;;;;0.5;0.4;;;;;;;39.23;26.31055;936.0329;;;;
2020/08/21 10:28:32;;;;;;;0.7;0.4;;;;;;;40.42;24.69336;936.063;;;;
2020/08/21 10:31:00;;;;;;;1.1;0.3;;;;;;;41.08;25.08398;936.0518;;;;
2020/08/21 10:33:25;;;;;;;0.5;0.3;;;;;;;41.77;26.88379;936.057;;;;
2020/08/21 10:35:50;;;;;;;0.7;0.4;;;;;;;42.27;23.41992;936.0693;;;;
2020/08/21 10:38:15;;;;;;;0.4;0.4;;;;;;;42.41;20.9502;936.1131;;;;
2020/08/21 10:40:41;;;;;;;0.2;0.2;;;;;;;42.13;22.53027;936.0972;;;;
2020/08/21 10:43:06;;;;;;;0.4;0.4;;;;;;;43.19;21.15723;936.1189;;;;
2020/08/21 10:45:38;;;;;;;0.3;0.2;;;;;;;44.21;20.46582;936.0381;;;;
2020/08/21 10:48:03;;;;;;;0.4;0.4;;;;;;;44.65;20.8418;936.0403;;;;
2020/08/21 10:50:29;;;;;;;3;0.4;;;;;;;44.26;22.53613;936.0201;;;;
2020/08/21 10:52:54;;;;;;;0.7;0.3;;;;;;;44.25;21.79688;936.0206;;;;
2020/08/21 10:55:21;;;;;;;0.3;0.3;;;;;;;43.61;20.94336;936.0583;;;;
2020/08/21 10:57:48;;;;;;;0.2;0.2;;;;;;;43.98;22.90332;936.1226;;;;
2020/08/21 11:00:17;;;;;;;0.2;0.2;;;;;;;44.12;22.38184;936.113;;;;
2020/08/21 11:02:44;;;;;;;0.4;0.4;;;;;;;44;22.54785;936.0955;;;;
2020/08/21 11:05:12;;;;;;;0.7;0.4;;;;;;;43.74;21.87109;936.1191;;;;
2020/08/21 11:07:37;;;;;;;0.5;0.2;;;;;;;43.57;21.76465;936.1115;;;;
2020/08/21 11:10:02;;;;;;;0.3;0.3;;;;;;;43.85;22.04883;936.1072;;;;
2020/08/21 11:12:27;;;;;;;3.3;0.6;;;;;;;43.2;22.95117;936.121;;;;
2020/08/21 11:14:53;;;;;;;0.4;0.3;;;;;;;43.38;23.5127;936.1057;;;;
2020/08/21 11:17:17;;;;;;;0.7;0.3;;;;;;;43.26;22.86816;936.1451;;;;
2020/08/21 11:19:42;;;;;;;0.4;0.3;;;;;;;42.97;24.35156;936.1333;;;;
2020/08/21 11:22:08;;;;;;;0.4;0.3;;;;;;;43.16;23.30469;936.1608;;;;
2020/08/21 11:24:33;;;;;;;0.2;0.2;;;;;;;42.74;25.0625;936.1232;;;;
2020/08/21 11:26:59;;;;;;;4.7;0.7;;;;;;;42.8;24.46582;936.1358;;;;
2020/08/21 11:29:24;;;;;;;0.5;0.3;;;;;;;42.79;24.83203;936.108;;;;
2020/08/21 11:31:49;;;;;;;0.8;0.2;;;;;;;42.43;24.21289;936.0369;;;;
2020/08/21 11:34:14;;;;;;;0.3;0.3;;;;;;;42.35;25.50781;936.0463;;;;
2020/08/21 11:36:39;;;;;;;0.4;0.3;;;;;;;42.34;23.20313;936.0491;;;;
2020/08/21 11:39:05;;;;;;;0.4;0.3;;;;;;;42.31;23.22656;936.0544;;;;
2020/08/21 11:41:30;;;;;;;0.2;0.2;;;;;;;42.01;22.14551;936.0597;;;;
2020/08/21 11:43:55;;;;;;;0.4;0.2;;;;;;;42.23;24.00586;936.1169;;;;
2020/08/21 11:46:20;;;;;;;1.7;0.6;;;;;;;42.16;24.43066;936.1187;;;;
2020/08/21 11:48:45;;;;;;;0.6;0.4;;;;;;;42.13;25.74023;936.1212;;;;
2020/08/21 11:51:11;;;;;;;0.7;0.3;;;;;;;42.42;25.42578;936.1393;;;;
2020/08/21 11:53:44;;;;;;;0.3;0.2;;;;;;;42.76;22.61035;936.1553;;;;
2020/08/21 11:56:10;;;;;;;0.3;0.2;;;;;;;43.24;21.9707;936.1959;;;;
2020/08/21 11:58:37;;;;;;;0.5;0.4;;;;;;;43.59;23.24023;936.1124;;;;
2020/08/21 12:01:02;;;;;;;0.2;0.2;;;;;;;43.87;23.19238;936.2124;;;;
2020/08/21 12:03:27;;;;;;;0.3;0.3;;;;;;;43.44;22.2998;936.202;;;;
2020/08/21 12:05:52;;;;;;;0.3;0.2;;;;;;;43.69;23.09863;936.1919;;;;
2020/08/21 12:08:17;;;;;;;0.3;0.3;;;;;;;43.89;22.00098;936.1818;;;;
2020/08/21 12:10:44;;;;;;;0.6;0.4;;;;;;;44.27;21.46484;936.132;;;;
2020/08/21 12:13:09;;;;;;;0.4;0.3;;;;;;;44.53;23.07813;936.1574;;;;
2020/08/21 12:15:36;;;;;;;0.6;0.4;;;;;;;44.79;21.79785;936.1633;;;;
2020/08/21 12:18:03;;;;;;;0.9;0.3;;;;;;;44.97;20.89355;936.1389;;;;
2020/08/21 12:20:28;;;;;;;0.4;0.4;;;;;;;45.1;22.53906;936.1356;;;;
2020/08/21 12:22:53;;;;;;;0.2;0.2;;;;;;;44.89;23.16992;936.1233;;;;
2020/08/21 12:25:18;;;;;;;0.3;0.2;;;;;;;44.63;21.7041;936.1337;;;;
2020/08/21 12:27:44;;;;;;;1.1;0.4;;;;;;;44.02;21.79785;936.1226;;;;
2020/08/21 12:30:16;;;;;;;2.2;0.4;;;;;;;43.79;21.12402;936.0678;;;;
2020/08/21 12:32:41;;;;;;;0.4;0.3;;;;;;;43.74;21.94531;936.0508;;;;
2020/08/21 12:35:06;;;;;;;0.4;0.2;;;;;;;43.62;21.11621;936.0722;;;;
2020/08/21 12:37:32;;;;;;;0.4;0.3;;;;;;;43.22;23.88477;936.1046;;;;
2020/08/21 12:39:56;;;;;;;0.8;0.6;;;;;;;43.18;23.82227;936.062;;;;
2020/08/21 12:42:22;;;;;;;0.2;0.2;;;;;;;42.97;23.62695;936.0287;;;;
2020/08/21 12:44:47;;;;;;;0.3;0.2;;;;;;;42.69;23.46582;936.022;;;;
2020/08/21 12:47:12;;;;;;;1.1;0.6;;;;;;;42.16;24.13672;936.0361;;;;
2020/08/21 12:49:38;;;;;;;0.4;0.3;;;;;;;41.91;25.21387;936.0154;;;;
2020/08/21 12:52:03;;;;;;;0.3;0.3;;;;;;;41.35;24.36426;935.9801;;;;
2020/08/21 12:54:28;;;;;;;0.3;0.3;;;;;;;40.7;23.93945;935.9769;;;;
2020/08/21 12:56:53;;;;;;;0.2;0.2;;;;;;;40.36;26.82617;935.9916;;;;
2020/08/21 12:59:18;;;;;;;0.8;0.4;;;;;;;39.88;27.35938;935.9559;;;;
2020/08/21 13:01:43;;;;;;;1;0.4;;;;;;;39.34;27.69238;935.9778;;;;
2020/08/21 13:04:09;;;;;;;0.7;0.4;;;;;;;39.03;28.37988;935.973;;;;
2020/08/21 13:06:34;;;;;;;0.4;0.4;;;;;;;38.99;30.33691;935.9402;;;;
2020/08/21 13:08:59;;;;;;;0.5;0.4;;;;;;;38.99;29.42383;935.9951;;;;
2020/08/21 13:11:24;;;;;;;0.5;0.4;;;;;;;38.88;27.10547;935.9842;;;;
2020/08/21 13:13:49;;;;;;;0.2;0.2;;;;;;;38.7;28.74902;936.032;;;;
2020/08/21 13:16:14;;;;;;;0.7;0.5;;;;;;;38.42;29.03516;936.0393;;;;
2020/08/21 13:18:40;;;;;;;1.1;0.4;;;;;;;38.31;29.61133;935.9844;;;;
2020/08/21 13:21:05;;;;;;;0.4;0.3;;;;;;;38.08;27.37402;936.0151;;;;
2020/08/21 13:23:30;;;;;;;1.6;0.3;;;;;;;38.01;28.40234;936.0115;;;;
2020/08/21 13:25:55;;;;;;;0.6;0.4;;;;;;;37.96;29.43066;935.9846;;;;
2020/08/21 13:28:21;;;;;;;0.5;0.3;;;;;;;37.77;30.31738;935.9236;;;;
2020/08/21 13:30:46;;;;;;;0.5;0.5;;;;;;;37.31;29.7168;935.9322;;;;
2020/08/21 13:33:11;;;;;;;2.8;0.5;;;;;;;37.46;30.53906;935.9493;;;;
2020/08/21 13:35:36;;;;;;;0.4;0.4;;;;;;;37.35;30.61719;935.9247;;;;
2020/08/21 13:38:01;;;;;;;1.1;0.5;;;;;;;37.32;30.71191;935.93;;;;
2020/08/21 13:40:26;;;;;;;0.3;0.3;;;;;;;37.15;30.19141;935.8996;;;;
2020/08/21 13:42:51;;;;;;;0.9;0.4;;;;;;;37.06;31.27637;935.8505;;;;
2020/08/21 13:45:17;;;;;;;1.4;0.7;;;;;;;37.1;30.04297;935.8625;;;;
2020/08/21 13:47:42;;;;;;;1.1;0.5;;;;;;;37.09;32.15039;935.8469;;;;
2020/08/21 13:50:07;;;;;;;0.4;0.4;;;;;;;37.06;32.26953;935.8427;;;;
2020/08/21 13:52:33;;;;;;;0.2;0.2;;;;;;;37.02;32.47266;935.8719;;;;
2020/08/21 13:54:58;;;;;;;0.3;0.3;;;;;;;36.95;32.65039;935.8502;;;;
2020/08/21 13:57:23;;;;;;;0.5;0.4;;;;;;;36.88;30.91211;935.8045;;;;
2020/08/21 13:59:48;;;;;;;0.9;0.4;;;;;;;36.87;30.43945;935.8283;;;;
2020/08/21 14:02:13;;;;;;;0.4;0.4;;;;;;;36.74;30.47949;935.8145;;;;
2020/08/21 14:04:38;;;;;;;0.3;0.3;;;;;;;36.67;30.66797;935.8148;;;;
2020/08/21 14:07:03;;;;;;;0.4;0.4;;;;;;;36.69;31.65039;935.825;;;;
2020/08/21 14:09:29;;;;;;;0.4;0.4;;;;;;;36.75;31.71484;935.8384;;;;
2020/08/21 14:11:54;;;;;;;0.5;0.4;;;;;;;36.74;31.47168;935.7836;;;;
2020/08/21 14:14:19;;;;;;;0.4;0.3;;;;;;;36.6;30.67578;935.8137;;;;
2020/08/21 14:16:44;;;;;;;0.5;0.3;;;;;;;36.33;30.82617;935.8028;;;;